createdAt,value
2022-10-02T00:00:14.614Z,16.29
2022-10-02T00:03:30.246Z,16.26
2022-10-02T00:06:40.394Z,16.30
2022-10-02T00:10:06.742Z,16.30
2022-10-02T00:13:16.898Z,16.28
2022-10-02T00:16:41.963Z,16.28
2022-10-02T00:19:48.212Z,16.16
2022-10-02T00:22:59.757Z,16.15
2022-10-02T00:26:23.048Z,16.22
2022-10-02T00:29:41.573Z,16.20
2022-10-02T00:33:14.479Z,16.22
2022-10-02T00:36:50.301Z,16.24
2022-10-02T00:40:46.098Z,16.32
2022-10-02T00:44:01.608Z,16.29
2022-10-02T00:47:28.038Z,16.31
2022-10-02T00:51:03.841Z,16.34
2022-10-02T00:54:44.880Z,16.39
2022-10-02T00:58:29.782Z,16.47
2022-10-02T01:01:39.789Z,16.56
2022-10-02T01:04:50.382Z,16.56
2022-10-02T01:07:56.629Z,16.57
2022-10-02T01:11:02.749Z,16.59
2022-10-02T01:14:08.946Z,16.57
2022-10-02T01:17:14.709Z,16.61
2022-10-02T01:20:23.549Z,16.64
2022-10-02T01:23:42.986Z,16.81
2022-10-02T01:26:48.250Z,16.82
2022-10-02T01:29:54.279Z,16.82
2022-10-02T01:33:08.157Z,16.87
2022-10-02T01:36:13.829Z,16.93
2022-10-02T01:39:20.360Z,16.84
2022-10-02T01:42:26.178Z,16.98
2022-10-02T01:45:31.958Z,17.00
2022-10-02T01:48:55.073Z,17.03
2022-10-02T01:52:27.556Z,16.92
2022-10-02T01:56:03.215Z,16.90
2022-10-02T01:59:29.291Z,16.78
2022-10-02T02:02:53.211Z,16.79
2022-10-02T02:06:19.590Z,16.80
2022-10-02T02:09:51.517Z,16.76
2022-10-02T02:13:18.087Z,16.60
2022-10-02T02:16:55.935Z,16.67
2022-10-02T02:20:09.512Z,16.69
2022-10-02T02:23:23.114Z,16.60
2022-10-02T02:26:29.181Z,16.68
2022-10-02T02:29:33.944Z,16.66
2022-10-02T02:32:41.469Z,16.59
2022-10-02T02:35:51.731Z,16.57
2022-10-02T02:39:02.665Z,16.58
2022-10-02T02:42:05.874Z,16.46
2022-10-02T02:45:31.067Z,16.45
2022-10-02T02:48:43.589Z,16.48
2022-10-02T02:51:53.307Z,16.39
2022-10-02T02:55:22.047Z,16.46
2022-10-02T02:58:36.534Z,16.51
2022-10-02T03:01:42.675Z,16.52
2022-10-02T03:04:49.208Z,16.51
2022-10-02T03:07:55.047Z,16.47
2022-10-02T03:11:36.078Z,16.55
2022-10-02T03:14:55.466Z,16.51
2022-10-02T03:18:27.444Z,16.53
2022-10-02T03:21:46.230Z,16.54
2022-10-02T03:25:00.288Z,16.41
2022-10-02T03:28:54.414Z,16.38
2022-10-02T03:31:43.244Z,16.36
2022-10-02T03:34:48.735Z,16.32
2022-10-02T03:38:04.322Z,16.26
2022-10-02T03:41:10.161Z,16.24
2022-10-02T03:44:16.326Z,16.03
2022-10-02T03:47:21.424Z,16.12
2022-10-02T03:50:32.819Z,16.04
2022-10-02T03:53:41.557Z,16.05
2022-10-02T03:56:55.354Z,16.08
2022-10-02T04:00:12.103Z,16.10
2022-10-02T04:03:29.965Z,15.97
2022-10-02T04:07:13.629Z,15.93
2022-10-02T04:10:39.051Z,16.00
2022-10-02T04:13:55.378Z,15.98
2022-10-02T04:17:34.757Z,16.01
2022-10-02T04:20:44.923Z,16.14
2022-10-02T04:24:04.570Z,16.24
2022-10-02T04:27:31.279Z,16.27
2022-10-02T04:30:36.737Z,16.42
2022-10-02T04:33:42.327Z,16.51
2022-10-02T04:37:29.128Z,16.67
2022-10-02T04:41:00.448Z,16.70
2022-10-02T04:44:39.059Z,16.70
2022-10-02T04:48:06.902Z,16.80
2022-10-02T04:51:35.893Z,16.86
2022-10-02T04:55:25.338Z,16.93
2022-10-02T04:58:19.887Z,16.99
2022-10-02T05:01:53.499Z,17.06
2022-10-02T05:05:07.035Z,17.11
2022-10-02T05:08:41.325Z,17.16
2022-10-02T05:12:26.691Z,17.22
2022-10-02T05:15:40.532Z,17.25
2022-10-02T05:19:10.996Z,17.19
2022-10-02T05:22:43.187Z,17.22
2022-10-02T05:26:23.704Z,17.32
2022-10-02T05:29:42.866Z,17.39
2022-10-02T05:32:59.336Z,17.42
2022-10-02T05:36:39.968Z,17.44
2022-10-02T05:39:49.931Z,17.47
2022-10-02T05:43:00.957Z,17.51
2022-10-02T05:46:10.375Z,17.54
2022-10-02T05:49:30.566Z,17.60
2022-10-02T05:53:02.800Z,17.58
2022-10-02T05:56:18.620Z,17.48
2022-10-02T05:59:38.433Z,17.51
2022-10-02T06:03:00.677Z,17.50
2022-10-02T06:06:19.216Z,17.57
2022-10-02T06:09:31.713Z,17.62
2022-10-02T06:12:59.616Z,17.70
2022-10-02T06:16:27.266Z,17.77
2022-10-02T06:19:43.838Z,17.83
2022-10-02T06:22:52.256Z,17.87
2022-10-02T06:26:18.458Z,17.93
2022-10-02T06:29:39.999Z,17.99
2022-10-02T06:32:55.378Z,17.98
2022-10-02T06:36:18.669Z,17.95
2022-10-02T06:39:38.215Z,18.02
2022-10-02T06:43:12.319Z,18.08
2022-10-02T06:46:41.108Z,18.14
2022-10-02T06:50:12.948Z,18.18
2022-10-02T06:53:42.291Z,18.20
2022-10-02T06:56:52.120Z,18.30
2022-10-02T07:00:26.231Z,18.33
2022-10-02T07:03:41.900Z,18.31
2022-10-02T07:07:28.289Z,18.30
2022-10-02T07:10:50.421Z,18.25
2022-10-02T07:14:35.218Z,18.28
2022-10-02T07:17:54.087Z,18.28
2022-10-02T07:21:31.033Z,18.31
2022-10-02T07:24:54.034Z,18.33
2022-10-02T07:28:10.943Z,18.36
2022-10-02T07:31:37.558Z,18.32
2022-10-02T07:35:13.286Z,18.32
2022-10-02T07:38:52.616Z,18.31
2022-10-02T07:42:21.248Z,18.32
2022-10-02T07:45:43.195Z,18.36
2022-10-02T07:48:59.722Z,18.44
2022-10-02T07:52:25.875Z,18.40
2022-10-02T07:55:49.971Z,18.39
2022-10-02T07:59:56.109Z,18.35
2022-10-02T08:11:51.918Z,18.14
2022-10-02T08:30:11.558Z,17.46
2022-10-02T08:33:16.563Z,17.45
2022-10-02T08:36:37.170Z,17.47
2022-10-02T08:40:02.313Z,17.55
2022-10-02T08:43:18.908Z,17.72
2022-10-02T08:46:40.941Z,17.81
2022-10-02T08:50:36.508Z,17.77
2022-10-02T08:54:21.162Z,17.73
2022-10-02T08:57:40.416Z,17.72
2022-10-02T09:01:08.827Z,17.72
2022-10-02T09:04:53.000Z,17.59
2022-10-02T09:08:27.416Z,17.54
2022-10-02T09:11:45.503Z,17.46
2022-10-02T09:15:07.317Z,17.48
2022-10-02T09:18:35.455Z,17.35
2022-10-02T09:22:20.239Z,17.25
2022-10-02T09:25:37.522Z,17.29
2022-10-02T09:29:07.833Z,17.22
2022-10-02T09:32:29.147Z,17.21
2022-10-02T09:36:05.893Z,17.20
2022-10-02T09:39:23.878Z,17.16
2022-10-02T09:43:10.492Z,17.13
2022-10-02T09:47:00.345Z,17.06
2022-10-02T09:50:33.284Z,17.14
2022-10-02T09:54:07.331Z,17.17
2022-10-02T09:57:25.183Z,17.16
2022-10-02T10:01:17.371Z,17.24
2022-10-02T10:05:08.258Z,17.27
2022-10-02T10:08:38.408Z,17.20
2022-10-02T10:12:05.009Z,17.24
2022-10-02T10:16:08.571Z,17.31
2022-10-02T10:19:44.936Z,17.42
2022-10-02T10:23:27.727Z,17.45
2022-10-02T10:27:08.003Z,17.36
2022-10-02T10:30:20.208Z,17.21
2022-10-02T10:34:05.523Z,17.18
2022-10-02T10:37:40.801Z,17.16
2022-10-02T10:41:08.322Z,17.24
2022-10-02T10:44:41.017Z,17.19
2022-10-02T10:47:54.322Z,17.19
2022-10-02T10:51:29.397Z,17.28
2022-10-02T10:55:03.717Z,17.33
2022-10-02T10:58:36.576Z,17.33
2022-10-02T11:01:56.517Z,17.49
2022-10-02T11:05:26.867Z,17.57
2022-10-02T11:09:29.427Z,17.57
2022-10-02T11:12:57.049Z,17.60
2022-10-02T11:16:07.684Z,17.66
2022-10-02T11:19:33.383Z,17.53
2022-10-02T11:23:06.904Z,17.53
2022-10-02T11:26:39.057Z,17.57
2022-10-02T11:29:58.907Z,17.59
2022-10-02T11:33:08.648Z,17.59
2022-10-02T11:36:50.586Z,17.53
2022-10-02T11:40:34.681Z,17.55
2022-10-02T11:44:12.956Z,17.51
2022-10-02T11:47:56.804Z,17.50
2022-10-02T11:51:42.864Z,17.47
2022-10-02T11:55:17.611Z,17.38
2022-10-02T11:58:41.456Z,17.31
2022-10-02T12:02:24.606Z,17.30
2022-10-02T12:05:51.661Z,17.22
2022-10-02T12:09:24.451Z,17.17
2022-10-02T12:12:44.344Z,17.18
2022-10-02T12:16:26.750Z,17.11
2022-10-02T12:20:26.717Z,17.06
2022-10-02T12:24:23.754Z,17.05
2022-10-02T12:27:39.290Z,16.96
2022-10-02T12:31:16.898Z,16.93
2022-10-02T12:35:08.411Z,16.92
2022-10-02T12:38:58.903Z,16.85
2022-10-02T12:42:48.968Z,16.78
2022-10-02T12:46:23.136Z,16.81
2022-10-02T12:49:56.318Z,16.80
2022-10-02T12:53:45.890Z,16.77
2022-10-02T12:57:02.829Z,16.85
2022-10-02T13:00:23.341Z,16.78
2022-10-02T13:04:02.228Z,16.75
2022-10-02T13:07:32.845Z,16.69
2022-10-02T13:10:41.873Z,16.71
2022-10-02T13:14:12.427Z,16.72
2022-10-02T13:17:25.850Z,16.72
2022-10-02T13:20:46.256Z,16.69
2022-10-02T13:24:22.269Z,16.70
2022-10-02T13:27:57.845Z,16.69
2022-10-02T13:31:20.364Z,16.71
2022-10-02T13:35:01.364Z,16.67
2022-10-02T13:38:34.734Z,16.67
2022-10-02T13:42:09.280Z,16.66
2022-10-02T13:45:48.345Z,16.57
2022-10-02T13:49:13.730Z,16.57
2022-10-02T13:52:51.481Z,16.59
2022-10-02T13:56:25.129Z,16.54
2022-10-02T13:59:59.803Z,16.49
2022-10-02T14:03:21.132Z,16.27
2022-10-02T14:06:40.447Z,16.26
2022-10-02T14:10:26.525Z,16.38
2022-10-02T14:14:03.544Z,16.35
2022-10-02T14:17:35.952Z,16.24
2022-10-02T14:20:55.392Z,16.15
2022-10-02T14:24:33.824Z,16.10
2022-10-02T14:28:10.698Z,16.05
2022-10-02T14:31:40.459Z,16.04
2022-10-02T14:35:12.272Z,15.97
2022-10-02T14:38:57.320Z,15.94
2022-10-02T14:42:24.003Z,15.92
2022-10-02T14:45:34.732Z,15.87
2022-10-02T14:49:12.487Z,15.83
2022-10-02T14:52:45.043Z,15.79
2022-10-02T14:56:07.914Z,15.67
2022-10-02T14:59:37.409Z,15.65
2022-10-02T15:03:11.935Z,15.60
2022-10-02T15:06:39.786Z,15.54
2022-10-02T15:10:08.014Z,15.47
2022-10-02T15:13:52.882Z,15.44
2022-10-02T15:17:25.574Z,15.41
2022-10-02T15:21:07.694Z,15.39
2022-10-02T15:24:13.970Z,15.35
2022-10-02T15:27:39.678Z,15.35
2022-10-02T15:30:46.695Z,15.34
2022-10-02T15:34:16.915Z,15.32
2022-10-02T15:37:52.404Z,15.30
2022-10-02T15:41:06.937Z,15.31
2022-10-02T15:44:32.025Z,15.25
2022-10-02T15:48:07.436Z,15.25
2022-10-02T15:51:35.337Z,15.26
2022-10-02T15:55:03.349Z,15.23
2022-10-02T15:58:47.335Z,15.25
2022-10-02T16:02:33.941Z,15.25
2022-10-02T16:06:11.904Z,15.23
2022-10-02T16:09:54.111Z,15.22
2022-10-02T16:13:08.616Z,15.21
2022-10-02T16:16:37.420Z,15.22
2022-10-02T16:20:12.759Z,15.19
2022-10-02T16:23:37.965Z,15.24
2022-10-02T16:26:56.900Z,15.22
2022-10-02T16:30:26.219Z,15.20
2022-10-02T16:33:32.788Z,15.17
2022-10-02T16:36:54.856Z,15.13
2022-10-02T16:40:17.564Z,15.08
2022-10-02T16:43:49.965Z,15.03
2022-10-02T16:47:01.642Z,14.97
2022-10-02T16:50:33.492Z,14.84
2022-10-02T16:53:43.223Z,14.79
2022-10-02T16:56:58.799Z,14.75
2022-10-02T17:00:23.386Z,14.71
2022-10-02T17:03:52.412Z,14.54
2022-10-02T17:07:14.724Z,14.55
2022-10-02T17:10:30.318Z,14.50
2022-10-02T17:14:04.955Z,14.43
2022-10-02T17:17:34.814Z,14.40
2022-10-02T17:20:47.922Z,14.39
2022-10-02T17:24:29.115Z,14.31
2022-10-02T17:27:49.554Z,14.21
2022-10-02T17:31:30.029Z,14.18
2022-10-02T17:34:45.487Z,14.03
2022-10-02T17:38:17.391Z,14.00
2022-10-02T17:42:11.604Z,13.94
2022-10-02T17:45:44.948Z,13.99
2022-10-02T17:49:04.772Z,13.96
2022-10-02T17:52:42.668Z,13.89
2022-10-02T17:56:27.137Z,13.83
2022-10-02T17:59:46.431Z,13.80
2022-10-02T18:03:10.364Z,13.76
2022-10-02T18:07:12.299Z,13.73
2022-10-02T18:10:47.042Z,13.69
2022-10-02T18:14:26.026Z,13.65
2022-10-02T18:17:48.753Z,13.61
2022-10-02T18:21:04.670Z,13.54
2022-10-02T18:24:42.640Z,13.51
2022-10-02T18:28:11.184Z,13.51
2022-10-02T18:31:55.872Z,13.51
2022-10-02T18:35:19.475Z,13.53
2022-10-02T18:38:48.032Z,13.44
2022-10-02T18:42:33.426Z,13.41
2022-10-02T18:45:56.659Z,13.37
2022-10-02T18:49:22.481Z,13.39
2022-10-02T18:52:57.986Z,13.36
2022-10-02T18:56:25.834Z,13.36
2022-10-02T18:59:42.153Z,13.34
2022-10-02T19:03:26.598Z,13.32
2022-10-02T19:07:19.468Z,13.28
2022-10-02T19:10:49.389Z,13.24
2022-10-02T19:13:54.616Z,13.21
2022-10-02T19:17:21.975Z,13.17
2022-10-02T19:20:44.769Z,13.16
2022-10-02T19:24:08.568Z,13.09
2022-10-02T19:27:20.750Z,13.12
2022-10-02T19:30:45.275Z,13.11
2022-10-02T19:34:13.768Z,13.10
2022-10-02T19:37:20.661Z,13.10
2022-10-02T19:40:39.661Z,13.05
2022-10-02T19:43:49.490Z,13.03
2022-10-02T19:47:01.160Z,12.99
2022-10-02T19:50:07.849Z,12.92
2022-10-02T19:53:16.549Z,12.94
2022-10-02T19:56:32.818Z,12.81
2022-10-02T19:59:49.943Z,12.74
2022-10-02T20:02:57.879Z,12.62
2022-10-02T20:06:07.762Z,12.49
2022-10-02T20:09:43.920Z,12.41
2022-10-02T20:13:02.659Z,12.34
2022-10-02T20:16:30.832Z,12.30
2022-10-02T20:19:39.207Z,12.32
2022-10-02T20:22:52.576Z,12.23
2022-10-02T20:26:05.158Z,12.22
2022-10-02T20:29:13.044Z,12.24
2022-10-02T20:32:36.895Z,12.26
2022-10-02T20:35:54.847Z,12.18
2022-10-02T20:39:22.360Z,12.12
2022-10-02T20:42:44.082Z,12.09
2022-10-02T20:46:04.700Z,12.07
2022-10-02T20:49:34.746Z,12.08
2022-10-02T20:52:45.982Z,12.05
2022-10-02T20:56:15.995Z,12.12
2022-10-02T20:59:39.129Z,12.19
2022-10-02T21:02:53.637Z,12.18
2022-10-02T21:06:27.326Z,12.18
2022-10-02T21:10:06.934Z,12.22
2022-10-02T21:13:39.519Z,12.19
2022-10-02T21:17:01.413Z,12.24
2022-10-02T21:20:46.154Z,12.27
2022-10-02T21:23:49.957Z,12.25
2022-10-02T21:27:23.143Z,12.24
2022-10-02T21:30:33.417Z,12.26
2022-10-02T21:33:50.259Z,12.09
2022-10-02T21:37:07.726Z,12.05
2022-10-02T21:40:39.104Z,12.08
2022-10-02T21:44:00.541Z,12.13
2022-10-02T21:47:32.688Z,12.02
2022-10-02T21:51:11.627Z,11.97
2022-10-02T21:55:02.447Z,11.86
2022-10-02T21:58:37.909Z,11.93
2022-10-02T22:02:11.948Z,11.78
2022-10-02T22:05:55.768Z,11.69
2022-10-02T22:09:15.468Z,11.66
2022-10-02T22:12:50.369Z,11.58
2022-10-02T22:16:33.833Z,11.37
2022-10-02T22:20:00.283Z,11.31
2022-10-02T22:23:35.813Z,11.21
2022-10-02T22:27:05.898Z,11.12
2022-10-02T22:30:11.259Z,11.07
2022-10-02T22:33:44.743Z,10.99
2022-10-02T22:37:04.425Z,10.98
2022-10-02T22:40:26.815Z,10.90
2022-10-02T22:43:43.902Z,10.82
2022-10-02T22:47:12.241Z,10.74
2022-10-02T22:50:21.969Z,10.72
2022-10-02T22:53:26.829Z,10.68
2022-10-02T22:56:15.294Z,10.62
2022-10-02T22:59:29.303Z,10.61
2022-10-02T23:02:25.418Z,10.66
2022-10-02T23:05:55.936Z,10.64
2022-10-02T23:08:55.194Z,10.69
2022-10-02T23:12:00.180Z,10.70
2022-10-02T23:15:42.796Z,10.74
2022-10-02T23:19:17.213Z,10.81
2022-10-02T23:22:44.652Z,10.80
2022-10-02T23:26:12.032Z,10.92
2022-10-02T23:29:57.973Z,10.99
2022-10-02T23:33:19.039Z,11.09
2022-10-02T23:36:46.783Z,11.10
2022-10-02T23:40:04.213Z,11.10
2022-10-02T23:43:14.060Z,11.10
2022-10-02T23:46:25.520Z,11.13
2022-10-02T23:49:36.251Z,11.21
2022-10-02T23:52:58.315Z,11.19
2022-10-02T23:56:11.836Z,11.15
2022-10-02T23:59:40.431Z,11.14
